createdAt,value
2022-08-16T08:05:25.584Z,2520.00
2022-08-16T08:06:20.294Z,2528.00
2022-08-16T08:07:20.859Z,2536.00
2022-08-16T08:08:51.668Z,2548.00
2022-08-16T08:09:19.966Z,2560.00
2022-08-16T08:10:29.419Z,2564.00
2022-08-16T08:11:19.778Z,2580.00
2022-08-16T08:12:31.857Z,2588.00
2022-08-16T08:13:19.623Z,2600.00
2022-08-16T08:14:29.839Z,2612.00
2022-08-16T08:15:25.335Z,2616.00
2022-08-16T08:16:19.707Z,2628.00
2022-08-16T08:17:42.166Z,2636.00
2022-08-16T08:19:23.586Z,2668.00
2022-08-16T08:20:26.717Z,2676.00
2022-08-16T08:21:26.285Z,2680.00
2022-08-16T08:22:23.321Z,2692.00
2022-08-16T08:23:23.240Z,2704.00
2022-08-16T08:24:32.019Z,2712.00
2022-08-16T08:25:23.073Z,2724.00
2022-08-16T08:26:24.328Z,2744.00
2022-08-16T08:27:23.702Z,2756.00
2022-08-16T08:28:22.827Z,2768.00
2022-08-16T08:29:24.848Z,2768.00
2022-08-16T08:30:52.234Z,2784.00
2022-08-16T08:31:22.598Z,2800.00
2022-08-16T08:32:57.969Z,2812.00
2022-08-16T08:33:22.419Z,2836.00
2022-08-16T08:34:22.363Z,2844.00
2022-08-16T08:35:24.363Z,2856.00
2022-08-16T08:36:22.434Z,2852.00
2022-08-16T08:37:22.091Z,2860.00
2022-08-16T08:38:43.952Z,2868.00
2022-08-16T08:39:21.937Z,2868.00
2022-08-16T08:40:24.577Z,2884.00
2022-08-16T08:41:28.298Z,2888.00
2022-08-16T08:42:25.067Z,2892.00
2022-08-16T08:43:21.611Z,2892.00
2022-08-16T08:44:28.595Z,2904.00
2022-08-16T08:45:47.162Z,2912.00
2022-08-16T08:46:22.044Z,2892.00
2022-08-16T08:47:21.279Z,2912.00
2022-08-16T08:48:33.403Z,2916.00
2022-08-16T08:49:21.119Z,2920.00
2022-08-16T08:50:32.112Z,2920.00
2022-08-16T08:51:20.957Z,2940.00
2022-08-16T08:52:35.304Z,2936.00
2022-08-16T08:53:20.795Z,2944.00
2022-08-16T08:54:20.847Z,2944.00
2022-08-16T08:55:20.641Z,2956.00
2022-08-16T08:56:23.241Z,2972.00
2022-08-16T08:57:20.470Z,2980.00
2022-08-16T08:58:20.404Z,2984.00
2022-08-16T08:59:20.739Z,2988.00
2022-08-16T09:00:21.506Z,2992.00
2022-08-16T09:01:31.455Z,3004.00
2022-08-16T09:02:20.069Z,3004.00
2022-08-16T09:03:19.980Z,3012.00
2022-08-16T09:04:19.937Z,3012.00
2022-08-16T09:05:19.824Z,3000.00
2022-08-16T09:06:19.743Z,3024.00
2022-08-16T09:07:19.666Z,3024.00
2022-08-16T09:08:19.579Z,3036.00
2022-08-16T09:09:19.504Z,3040.00
2022-08-16T09:10:21.156Z,3048.00
2022-08-16T09:11:19.349Z,3048.00
2022-08-16T09:12:31.260Z,3052.00
2022-08-16T09:13:19.183Z,3052.00
2022-08-16T09:14:24.651Z,3052.00
2022-08-16T09:15:21.670Z,3060.00
2022-08-16T09:17:01.461Z,3060.00
2022-08-16T09:17:38.257Z,3056.00
2022-08-16T09:18:26.733Z,3060.00
2022-08-16T09:19:18.693Z,3068.00
2022-08-16T09:20:18.614Z,3072.00
2022-08-16T09:21:18.534Z,3084.00
2022-08-16T09:22:20.062Z,3080.00
2022-08-16T09:23:18.565Z,3064.00
2022-08-16T09:24:46.769Z,3068.00
2022-08-16T09:25:25.798Z,3044.00
2022-08-16T09:26:45.604Z,3060.00
2022-08-16T09:27:18.049Z,3072.00
2022-08-16T09:29:13.759Z,3076.00
2022-08-16T09:29:24.116Z,3024.00
2022-08-16T09:30:34.749Z,3096.00
2022-08-16T09:31:17.735Z,3080.00
2022-08-16T09:32:25.609Z,3084.00
2022-08-16T09:33:17.566Z,3092.00
2022-08-16T09:34:19.295Z,3100.00
2022-08-16T09:35:17.411Z,3100.00
2022-08-16T09:36:31.977Z,3116.00
2022-08-16T09:37:19.669Z,3140.00
2022-08-16T09:38:31.246Z,3144.00
2022-08-16T09:39:17.089Z,3164.00
2022-08-16T09:40:32.133Z,3152.00
2022-08-16T09:41:16.929Z,3180.00
2022-08-16T09:42:16.846Z,3196.00
2022-08-16T09:43:46.495Z,3216.00
2022-08-16T09:45:09.334Z,3220.00
2022-08-16T09:45:17.903Z,3236.00
2022-08-16T09:46:49.237Z,3240.00
2022-08-16T09:47:16.450Z,3228.00
2022-08-16T09:48:36.769Z,3232.00
2022-08-16T09:49:16.305Z,3244.00
2022-08-16T09:50:22.416Z,3240.00
2022-08-16T09:51:16.123Z,3224.00
2022-08-16T09:52:16.054Z,3232.00
2022-08-16T09:53:16.672Z,3216.00
2022-08-16T09:54:17.208Z,3212.00
2022-08-16T09:55:15.808Z,3244.00
2022-08-16T09:56:15.726Z,3252.00
2022-08-16T09:57:15.644Z,3256.00
2022-08-16T09:58:41.744Z,3272.00
2022-08-16T09:59:15.496Z,3284.00
2022-08-16T10:00:44.474Z,3272.00
2022-08-16T10:01:15.327Z,3280.00
2022-08-16T10:02:27.305Z,3260.00
2022-08-16T10:03:15.209Z,3272.00
2022-08-16T10:04:31.600Z,3300.00
2022-08-16T10:05:15.069Z,3304.00
2022-08-16T10:06:14.920Z,3316.00
2022-08-16T10:07:16.370Z,3284.00
2022-08-16T10:08:25.708Z,3356.00
2022-08-16T10:09:14.685Z,3352.00
2022-08-16T10:10:30.205Z,3368.00
2022-08-16T10:11:14.528Z,3372.00
2022-08-16T10:12:19.409Z,3384.00
2022-08-16T10:13:14.542Z,2288.00
2022-08-16T10:14:16.144Z,3380.00
2022-08-16T10:15:15.699Z,3376.00
2022-08-16T10:17:14.798Z,3392.00
2022-08-16T10:18:41.038Z,3360.00
2022-08-16T10:19:13.903Z,2572.00
2022-08-16T10:20:18.515Z,3508.00
2022-08-16T10:21:13.732Z,2032.00
2022-08-16T10:22:13.657Z,3460.00
2022-08-16T10:23:17.213Z,3584.00
2022-08-16T10:24:13.493Z,3584.00
2022-08-16T10:27:19.780Z,3596.00
2022-08-16T10:27:19.841Z,3576.00
2022-08-16T10:27:25.615Z,3648.00
2022-08-16T10:28:27.960Z,3652.00
2022-08-16T10:29:13.094Z,3624.00
2022-08-16T10:30:26.248Z,3584.00
2022-08-16T10:31:16.752Z,3568.00
2022-08-16T10:32:12.858Z,3604.00
2022-08-16T10:33:12.777Z,3652.00
2022-08-16T10:34:31.656Z,3688.00
2022-08-16T10:35:12.617Z,3724.00
2022-08-16T10:36:12.563Z,3796.00
2022-08-16T10:37:12.487Z,3900.00
2022-08-16T10:38:27.170Z,3968.00
2022-08-16T10:39:12.298Z,3984.00
2022-08-16T10:40:28.464Z,4012.00
2022-08-16T10:41:15.988Z,4000.00
2022-08-16T10:42:13.062Z,4020.00
2022-08-16T10:43:18.307Z,4028.00
2022-08-16T10:44:11.900Z,4016.00
2022-08-16T10:45:11.819Z,4036.00
2022-08-16T10:46:39.552Z,4048.00
2022-08-16T10:47:11.732Z,4088.00
2022-08-16T10:48:27.261Z,4092.00
2022-08-16T10:49:11.548Z,4072.00
2022-08-16T10:50:18.903Z,4076.00
2022-08-16T10:51:11.344Z,4068.00
2022-08-16T10:52:18.176Z,4032.00
2022-08-16T10:53:11.182Z,4028.00
2022-08-16T10:54:28.739Z,4040.00
2022-08-16T10:56:55.812Z,3996.00
2022-08-16T10:57:12.142Z,3960.00
2022-08-16T10:58:11.683Z,3952.00
2022-08-16T11:00:21.115Z,3136.00
2022-08-16T11:01:43.194Z,3848.00
2022-08-16T11:03:00.805Z,3884.00
2022-08-16T11:05:10.777Z,3904.00
2022-08-16T11:06:12.170Z,3872.00
2022-08-16T11:07:43.031Z,3964.00
2022-08-16T11:08:10.029Z,4028.00
2022-08-16T11:09:28.976Z,4092.00
2022-08-16T11:11:11.694Z,4036.00
2022-08-16T11:12:13.976Z,3988.00
2022-08-16T11:14:11.493Z,4048.00
2022-08-16T11:15:13.470Z,4100.00
2022-08-16T11:17:11.261Z,4172.00
2022-08-16T11:19:03.589Z,2888.00
2022-08-16T11:19:12.437Z,2956.00
2022-08-16T11:21:08.980Z,4348.00
2022-08-16T11:22:39.169Z,4344.00
2022-08-16T11:23:08.841Z,4304.00
2022-08-16T11:24:39.229Z,4176.00
2022-08-16T11:25:12.309Z,4240.00
2022-08-16T11:26:16.284Z,3112.00
2022-08-16T11:27:32.479Z,2916.00
2022-08-16T11:28:08.427Z,4040.00
2022-08-16T11:29:15.511Z,4148.00
2022-08-16T11:30:09.135Z,4136.00
2022-08-16T11:31:08.208Z,3216.00
2022-08-16T11:32:08.137Z,4164.00
2022-08-16T11:33:08.039Z,3980.00
2022-08-16T11:34:08.090Z,4112.00
2022-08-16T11:35:10.883Z,4184.00
2022-08-16T11:36:27.288Z,3312.00
2022-08-16T11:37:08.383Z,2892.00
2022-08-16T11:38:47.946Z,2924.00
2022-08-16T11:39:07.568Z,4044.00
2022-08-16T11:40:07.525Z,4328.00
2022-08-16T11:41:07.408Z,4344.00
2022-08-16T11:42:16.857Z,4324.00
2022-08-16T11:43:10.015Z,4268.00
2022-08-16T11:44:07.172Z,4176.00
2022-08-16T11:45:07.107Z,4220.00
2022-08-16T11:46:44.754Z,4220.00
2022-08-16T11:47:06.944Z,4156.00
2022-08-16T11:48:06.873Z,4080.00
2022-08-16T11:49:12.711Z,4048.00
2022-08-16T11:50:06.716Z,4052.00
2022-08-16T11:51:06.665Z,4052.00
2022-08-16T11:52:06.584Z,4048.00
2022-08-16T11:53:08.146Z,4064.00
2022-08-16T11:54:08.890Z,4040.00
2022-08-16T11:55:06.354Z,4080.00
2022-08-16T11:56:06.331Z,4104.00
2022-08-16T11:57:09.171Z,4192.00
2022-08-16T11:58:06.077Z,4200.00
2022-08-16T11:59:06.040Z,4240.00
2022-08-16T12:00:05.929Z,4248.00
2022-08-16T12:01:05.840Z,4284.00
2022-08-16T12:02:32.173Z,4308.00
2022-08-16T12:03:05.685Z,4288.00
2022-08-16T12:04:05.719Z,4280.00
2022-08-16T12:05:05.530Z,4304.00
2022-08-16T12:06:05.454Z,4316.00
2022-08-16T12:07:05.370Z,4316.00
2022-08-16T12:08:05.573Z,4356.00
2022-08-16T12:09:05.215Z,4324.00
2022-08-16T12:10:05.138Z,3136.00
2022-08-16T12:11:05.066Z,4376.00
2022-08-16T12:12:04.978Z,4168.00
2022-08-16T12:13:04.921Z,4452.00
2022-08-16T12:14:05.061Z,4516.00
2022-08-16T12:15:04.748Z,4536.00
2022-08-16T12:16:04.669Z,4540.00
2022-08-16T12:17:04.609Z,4568.00
2022-08-16T12:18:04.513Z,4600.00
2022-08-16T12:19:04.739Z,4636.00
2022-08-16T12:20:04.720Z,4668.00
2022-08-16T12:21:04.272Z,4652.00
2022-08-16T12:22:05.744Z,4596.00
2022-08-16T12:23:04.133Z,4532.00
2022-08-16T12:24:04.052Z,4480.00
2022-08-16T12:25:03.992Z,4428.00
2022-08-16T12:26:10.385Z,4360.00
2022-08-16T12:27:03.847Z,4244.00
2022-08-16T12:28:03.735Z,4104.00
2022-08-16T12:29:03.693Z,4108.00
2022-08-16T12:30:03.578Z,4052.00
2022-08-16T12:31:03.509Z,4020.00
2022-08-16T12:32:37.978Z,3976.00
2022-08-16T12:33:03.413Z,3956.00
2022-08-16T12:34:03.259Z,3960.00
2022-08-16T12:35:03.199Z,3956.00
2022-08-16T12:36:03.111Z,3960.00
2022-08-16T12:37:04.815Z,3972.00
2022-08-16T12:38:08.546Z,4000.00
2022-08-16T12:39:02.874Z,3980.00
2022-08-16T12:40:02.845Z,3916.00
2022-08-16T12:41:02.722Z,3888.00
2022-08-16T12:42:02.639Z,2876.00
2022-08-16T12:43:02.562Z,3792.00
2022-08-16T12:44:02.484Z,3812.00
2022-08-16T12:45:02.413Z,3836.00
2022-08-16T12:46:02.366Z,3888.00
2022-08-16T12:47:02.253Z,3956.00
2022-08-16T12:48:31.721Z,4052.00
2022-08-16T12:49:02.093Z,4088.00
2022-08-16T12:50:02.019Z,4164.00
2022-08-16T12:51:01.939Z,4136.00
2022-08-16T12:52:01.855Z,3428.00
2022-08-16T12:53:01.784Z,3536.00
2022-08-16T12:54:01.703Z,3368.00
2022-08-16T12:55:01.634Z,3192.00
2022-08-16T12:56:01.557Z,3256.00
2022-08-16T12:57:01.464Z,3316.00
2022-08-16T12:58:01.407Z,3188.00
2022-08-16T12:59:01.332Z,3564.00
2022-08-16T13:00:01.239Z,3116.00
2022-08-16T13:01:01.595Z,3100.00
2022-08-16T13:02:01.078Z,3064.00
2022-08-16T13:03:01.003Z,3020.00
2022-08-16T13:04:12.095Z,2988.00
2022-08-16T13:05:00.858Z,2964.00
2022-08-16T13:06:00.788Z,2936.00
2022-08-16T13:07:00.707Z,2924.00
2022-08-16T13:08:00.696Z,2936.00
2022-08-16T13:09:00.549Z,2968.00
2022-08-16T13:10:03.469Z,3008.00
2022-08-16T13:11:00.380Z,3048.00
2022-08-16T13:12:00.402Z,3072.00
2022-08-16T13:13:00.235Z,3096.00
2022-08-16T13:14:00.175Z,3116.00
2022-08-16T13:15:00.073Z,3152.00
2022-08-16T13:16:02.223Z,4344.00
2022-08-16T13:16:59.911Z,4420.00
2022-08-16T13:17:59.829Z,3888.00
2022-08-16T13:18:59.748Z,3088.00
2022-08-16T13:20:08.689Z,2940.00
2022-08-16T13:20:59.592Z,2864.00
2022-08-16T13:21:59.551Z,2804.00
2022-08-16T13:22:59.441Z,2752.00
2022-08-16T13:23:59.363Z,2704.00
2022-08-16T13:24:59.284Z,2728.00
2022-08-16T13:25:59.250Z,3192.00
2022-08-16T13:26:59.132Z,3388.00
2022-08-16T13:28:02.715Z,2664.00
2022-08-16T13:28:58.971Z,2572.00
2022-08-16T13:29:58.883Z,2560.00
2022-08-16T13:30:58.819Z,2604.00
2022-08-16T13:31:58.730Z,3732.00
2022-08-16T13:32:58.660Z,3700.00
2022-08-16T13:33:59.090Z,2552.00
2022-08-16T13:34:58.497Z,2516.00
2022-08-16T13:35:58.543Z,2512.00
2022-08-16T13:36:58.338Z,2496.00
2022-08-16T13:37:58.263Z,2504.00
2022-08-16T13:38:58.187Z,2532.00
2022-08-16T13:39:58.171Z,2576.00
2022-08-16T13:40:58.030Z,2732.00
2022-08-16T13:41:57.946Z,2960.00
2022-08-16T13:42:57.878Z,2796.00
2022-08-16T13:43:59.391Z,2840.00
2022-08-16T13:44:58.276Z,2848.00
2022-08-16T13:45:57.636Z,2832.00
2022-08-16T13:46:57.548Z,2888.00
2022-08-16T13:47:57.485Z,2924.00
2022-08-16T13:48:57.478Z,2824.00
2022-08-16T13:49:57.321Z,2800.00
2022-08-16T13:51:00.595Z,2760.00
2022-08-16T13:51:57.194Z,2736.00
2022-08-16T13:52:57.093Z,2904.00
2022-08-16T13:54:02.986Z,2748.00
2022-08-16T13:54:56.929Z,2796.00
2022-08-16T13:55:57.928Z,2860.00
2022-08-16T13:56:56.802Z,2920.00
2022-08-16T13:58:35.142Z,2980.00
2022-08-16T13:58:56.905Z,3064.00
2022-08-16T13:59:57.645Z,3160.00
2022-08-16T14:00:56.470Z,3256.00
2022-08-16T14:01:59.551Z,3336.00
2022-08-16T14:02:59.087Z,3440.00
2022-08-16T14:03:56.217Z,3620.00
2022-08-16T14:05:02.938Z,3864.00
2022-08-16T14:05:56.064Z,4348.00
2022-08-16T14:06:56.378Z,3880.00
2022-08-16T14:07:55.924Z,4544.00
2022-08-16T14:08:59.281Z,4212.00
2022-08-16T14:09:55.745Z,3984.00
2022-08-16T14:10:55.675Z,3892.00
2022-08-16T14:11:55.589Z,3860.00
2022-08-16T14:12:55.528Z,3888.00
2022-08-16T14:13:55.438Z,4600.00
2022-08-16T14:14:56.584Z,5044.00
2022-08-16T14:15:55.280Z,4804.00
2022-08-16T14:16:55.198Z,4060.00
2022-08-16T14:18:14.867Z,4096.00
2022-08-16T14:18:55.038Z,5012.00
2022-08-16T14:20:00.053Z,4176.00
2022-08-16T14:20:54.893Z,4280.00
2022-08-16T14:22:13.347Z,5012.00
2022-08-16T14:22:54.862Z,4552.00
2022-08-16T14:23:54.645Z,5452.00
2022-08-16T14:24:54.572Z,5452.00
2022-08-16T14:25:54.577Z,4816.00
2022-08-16T14:26:54.417Z,4476.00
2022-08-16T14:27:54.917Z,4316.00
2022-08-16T14:28:54.546Z,4428.00
2022-08-16T14:29:54.185Z,4256.00
2022-08-16T14:30:54.105Z,4192.00
2022-08-16T14:31:54.425Z,4220.00
2022-08-16T14:32:54.237Z,4292.00
2022-08-16T14:33:53.863Z,4384.00
2022-08-16T14:34:53.789Z,4428.00
2022-08-16T14:35:53.712Z,4432.00
2022-08-16T14:36:53.624Z,4416.00
2022-08-16T14:37:57.115Z,4380.00
2022-08-16T14:38:53.474Z,4276.00
2022-08-16T14:39:53.472Z,4092.00
2022-08-16T14:40:54.975Z,3948.00
2022-08-16T14:41:53.511Z,3836.00
2022-08-16T14:42:53.386Z,3788.00
2022-08-16T14:43:53.094Z,3784.00
2022-08-16T14:44:53.001Z,3828.00
2022-08-16T14:45:54.892Z,3884.00
2022-08-16T14:46:52.957Z,3952.00
2022-08-16T14:47:52.773Z,4024.00
2022-08-16T14:48:53.347Z,4120.00
2022-08-16T14:49:52.679Z,4192.00
2022-08-16T14:50:52.535Z,4244.00
2022-08-16T14:51:52.457Z,4308.00
2022-08-16T14:52:56.063Z,4372.00
2022-08-16T14:53:52.915Z,4412.00
2022-08-16T14:54:52.238Z,4456.00
2022-08-16T14:55:52.141Z,4520.00
2022-08-16T14:56:54.986Z,5388.00
2022-08-16T14:57:54.212Z,5608.00
2022-08-16T14:58:51.915Z,4936.00
2022-08-16T14:59:51.829Z,5760.00
2022-08-16T15:00:51.823Z,5724.00
2022-08-16T15:01:59.816Z,5748.00
2022-08-16T15:02:51.613Z,5716.00
2022-08-16T15:03:51.532Z,5684.00
2022-08-16T15:04:51.449Z,5692.00
2022-08-16T15:05:53.752Z,5672.00
2022-08-16T15:06:51.291Z,5652.00
2022-08-16T15:07:51.309Z,5600.00
2022-08-16T15:08:51.132Z,5320.00
2022-08-16T15:10:01.098Z,4404.00
2022-08-16T15:10:50.978Z,4440.00
2022-08-16T15:11:50.902Z,4992.00
2022-08-16T15:12:50.821Z,4328.00
2022-08-16T15:13:51.712Z,4344.00
2022-08-16T15:14:50.661Z,4344.00
2022-08-16T15:15:58.813Z,4296.00
2022-08-16T15:16:50.518Z,4304.00
2022-08-16T15:17:54.031Z,4780.00
2022-08-16T15:18:50.355Z,4572.00
2022-08-16T15:19:50.278Z,4480.00
2022-08-16T15:20:50.201Z,4624.00
2022-08-16T15:21:53.788Z,5756.00
2022-08-16T15:22:50.042Z,5920.00
2022-08-16T15:23:49.968Z,5964.00
2022-08-16T15:24:49.890Z,5996.00
2022-08-16T15:25:53.445Z,6056.00
2022-08-16T15:26:49.750Z,6108.00
2022-08-16T15:27:55.289Z,6124.00
2022-08-16T15:28:49.584Z,6096.00
2022-08-16T15:29:52.299Z,5776.00
2022-08-16T15:30:59.999Z,5916.00
2022-08-16T15:31:49.369Z,5892.00
2022-08-16T15:32:49.270Z,5936.00
2022-08-16T15:33:55.177Z,5132.00
2022-08-16T15:34:49.131Z,5184.00
2022-08-16T15:35:49.055Z,5260.00
2022-08-16T15:36:48.962Z,5512.00
2022-08-16T15:37:54.464Z,5496.00
2022-08-16T15:39:02.593Z,5328.00
2022-08-16T15:39:48.769Z,4536.00
2022-08-16T15:40:54.982Z,4640.00
2022-08-16T15:41:48.574Z,4764.00
2022-08-16T15:42:53.909Z,4544.00
2022-08-16T15:43:48.420Z,4524.00
2022-08-16T15:44:52.317Z,4588.00
2022-08-16T15:45:48.267Z,4636.00
2022-08-16T15:46:56.883Z,4676.00
2022-08-16T15:47:51.440Z,4716.00
2022-08-16T15:48:48.025Z,4784.00
2022-08-16T15:49:53.077Z,4892.00
2022-08-16T15:50:47.877Z,5032.00
2022-08-16T15:51:47.799Z,5252.00
2022-08-16T15:52:47.731Z,5388.00
2022-08-16T15:53:52.173Z,5640.00
2022-08-16T15:54:53.258Z,7024.00
2022-08-16T15:55:47.485Z,6272.00
2022-08-16T15:56:47.407Z,6312.00
2022-08-16T15:57:47.339Z,7616.00
2022-08-16T15:58:55.741Z,7380.00
2022-08-16T15:59:49.092Z,7044.00
2022-08-16T16:00:47.123Z,7672.00
2022-08-16T16:01:47.040Z,5848.00
2022-08-16T16:02:46.975Z,6268.00
2022-08-16T16:03:46.868Z,8028.00
2022-08-16T16:04:46.790Z,8216.00
2022-08-16T16:05:46.711Z,8100.00
2022-08-16T16:06:46.646Z,8108.00
2022-08-16T16:07:56.531Z,8248.00
2022-08-16T16:08:46.485Z,8380.00
2022-08-16T16:09:46.410Z,8724.00
2022-08-16T16:10:54.131Z,8848.00
2022-08-16T16:11:46.254Z,8800.00
2022-08-16T16:12:50.867Z,8836.00
2022-08-16T16:13:46.101Z,8988.00
2022-08-16T16:14:46.033Z,9140.00
2022-08-16T16:15:45.954Z,8936.00
2022-08-16T16:16:46.009Z,8516.00
2022-08-16T16:17:50.819Z,8660.00
2022-08-16T16:18:48.973Z,8692.00
2022-08-16T16:19:45.644Z,8744.00
2022-08-16T16:20:45.570Z,8684.00
2022-08-16T16:21:45.488Z,8664.00
2022-08-16T16:22:45.417Z,6648.00
2022-08-16T16:23:54.748Z,5828.00
2022-08-16T16:24:45.264Z,6084.00
2022-08-16T16:25:45.191Z,6784.00
2022-08-16T16:26:45.766Z,12952.00
2022-08-16T16:27:45.207Z,16480.00
2022-08-16T16:29:06.058Z,5340.00
2022-08-16T16:29:46.400Z,5256.00
2022-08-16T16:30:45.537Z,5148.00
2022-08-16T16:31:53.041Z,5128.00
2022-08-16T16:32:44.689Z,8612.00
2022-08-16T16:33:44.588Z,13652.00
2022-08-16T16:34:44.529Z,29632.00
2022-08-16T16:35:46.829Z,24736.00
2022-08-16T16:36:48.290Z,20480.00
2022-08-16T16:37:44.292Z,13496.00
2022-08-16T16:38:44.220Z,20320.00
2022-08-16T16:39:44.176Z,15776.00
2022-08-16T16:40:46.392Z,5020.00
2022-08-16T16:41:43.981Z,3892.00
2022-08-16T16:42:44.305Z,3136.00
2022-08-16T16:43:43.832Z,2580.00
2022-08-16T16:44:49.104Z,2228.00
2022-08-16T16:45:43.678Z,2048.00
2022-08-16T16:46:44.005Z,1936.00
2022-08-16T16:47:44.975Z,1848.00
2022-08-16T16:48:43.447Z,1820.00
2022-08-16T16:49:43.374Z,1804.00
2022-08-16T16:50:45.193Z,1744.00
2022-08-16T16:51:44.734Z,1660.00
2022-08-16T16:52:44.213Z,1604.00
2022-08-16T16:53:43.067Z,1604.00
2022-08-16T16:54:42.985Z,1624.00
2022-08-16T16:55:42.909Z,1644.00
2022-08-16T16:56:45.912Z,1620.00
2022-08-16T16:57:42.754Z,1568.00
2022-08-16T16:58:43.338Z,1548.00
2022-08-16T16:59:42.603Z,1536.00
2022-08-16T17:00:42.813Z,1512.00
2022-08-16T17:01:59.410Z,1484.00
2022-08-16T17:02:49.295Z,1448.00
2022-08-16T17:03:42.289Z,1408.00
2022-08-16T17:04:42.216Z,1384.00
2022-08-16T17:05:42.137Z,1396.00
2022-08-16T17:06:42.056Z,1404.00
2022-08-16T17:07:41.986Z,1412.00
2022-08-16T17:08:41.914Z,1420.00
2022-08-16T17:09:41.824Z,1456.00
2022-08-16T17:10:46.618Z,1568.00
2022-08-16T17:11:41.671Z,1732.00
2022-08-16T17:12:47.512Z,1952.00
2022-08-16T17:13:41.856Z,2304.00
2022-08-16T17:14:42.685Z,2664.00
2022-08-16T17:15:41.365Z,2952.00
2022-08-16T17:16:46.322Z,3100.00
2022-08-16T17:18:00.015Z,3236.00
2022-08-16T17:19:14.278Z,3308.00
2022-08-16T17:19:41.794Z,3348.00
2022-08-16T17:20:40.962Z,3372.00
2022-08-16T17:21:42.014Z,3408.00
2022-08-16T17:22:40.816Z,3308.00
2022-08-16T17:23:58.052Z,3232.00
2022-08-16T17:24:44.756Z,3116.00
2022-08-16T17:25:40.573Z,3064.00
2022-08-16T17:26:40.496Z,3688.00
2022-08-16T17:27:40.416Z,9392.00
2022-08-16T17:28:58.930Z,4428.00
2022-08-16T17:29:45.904Z,3072.00
2022-08-16T17:30:45.158Z,2880.00
2022-08-16T17:31:43.315Z,2740.00
2022-08-16T17:32:48.179Z,2740.00
2022-08-16T17:33:54.630Z,2848.00
2022-08-16T17:34:46.406Z,3188.00
2022-08-16T17:35:39.795Z,7464.00
2022-08-16T17:36:39.715Z,19520.00
2022-08-16T17:37:48.812Z,21632.00
2022-08-16T17:38:44.626Z,21280.00
2022-08-16T17:39:54.871Z,21152.00
2022-08-16T17:40:47.761Z,20128.00
2022-08-16T17:41:39.328Z,20160.00
2022-08-16T17:42:39.249Z,19712.00
2022-08-16T17:43:43.812Z,18624.00
2022-08-16T17:44:39.085Z,15648.00
2022-08-16T17:45:39.031Z,16224.00
2022-08-16T17:46:41.585Z,17184.00
2022-08-16T17:47:38.861Z,14272.00
2022-08-16T17:48:38.791Z,12864.00
2022-08-16T17:49:38.706Z,11456.00
2022-08-16T17:50:38.635Z,9328.00
2022-08-16T17:51:38.792Z,10232.00
2022-08-16T17:52:48.991Z,13184.00
2022-08-16T17:53:38.434Z,12576.00
2022-08-16T17:54:38.344Z,6456.00
2022-08-16T17:55:38.269Z,5988.00
2022-08-16T17:56:38.181Z,4864.00
2022-08-16T17:57:38.106Z,3624.00
2022-08-16T17:58:38.024Z,2592.00
2022-08-16T17:59:40.775Z,2436.00
2022-08-16T18:00:37.878Z,2368.00
2022-08-16T18:01:37.875Z,2288.00
2022-08-16T18:02:44.136Z,2188.00
2022-08-16T18:04:02.667Z,2080.00
2022-08-16T18:04:49.646Z,1960.00
2022-08-16T18:05:37.493Z,1852.00
2022-08-16T18:06:37.419Z,1732.00
2022-08-16T18:07:37.338Z,1596.00
2022-08-16T18:08:37.264Z,1464.00
2022-08-16T18:09:40.894Z,1332.00
2022-08-16T18:10:37.113Z,1212.00
2022-08-16T18:11:37.033Z,1104.00
2022-08-16T18:12:50.839Z,1000.00
2022-08-16T18:13:36.884Z,904.00
2022-08-16T18:14:50.360Z,816.00
2022-08-16T18:15:36.721Z,748.00
2022-08-16T18:16:36.653Z,684.00
2022-08-16T18:17:36.565Z,632.00
2022-08-16T18:18:36.498Z,576.00
2022-08-16T18:19:36.413Z,528.00
2022-08-16T18:20:36.341Z,484.00
2022-08-16T18:21:36.263Z,452.00
2022-08-16T18:22:36.178Z,428.00
2022-08-16T18:23:36.105Z,400.00
2022-08-16T18:24:36.031Z,372.00
2022-08-16T18:25:35.951Z,348.00
2022-08-16T18:26:35.872Z,332.00
2022-08-16T18:27:35.800Z,316.00
2022-08-16T18:28:35.717Z,304.00
2022-08-16T18:29:35.638Z,288.00
2022-08-16T18:30:35.561Z,272.00
2022-08-16T18:31:35.476Z,260.00
2022-08-16T18:32:35.402Z,240.00
2022-08-16T18:33:43.131Z,232.00
2022-08-16T18:34:35.244Z,216.00
2022-08-16T18:35:35.170Z,200.00
2022-08-16T18:36:35.082Z,192.00
2022-08-16T18:37:35.010Z,176.00
2022-08-16T18:38:38.061Z,164.00
2022-08-16T18:39:34.904Z,152.00
2022-08-16T18:40:34.775Z,140.00
2022-08-16T18:41:34.692Z,128.00
2022-08-16T18:42:34.616Z,120.00
2022-08-16T18:43:55.502Z,108.00
2022-08-16T18:44:35.185Z,100.00
2022-08-16T18:45:35.058Z,92.00
2022-08-16T18:46:34.296Z,84.00
2022-08-16T18:47:34.234Z,76.00
2022-08-16T18:48:34.140Z,72.00
2022-08-16T18:49:34.061Z,64.00
2022-08-16T18:50:59.402Z,56.00
2022-08-16T18:51:33.904Z,56.00
2022-08-16T18:52:33.831Z,48.00
2022-08-16T18:53:33.746Z,44.00
2022-08-16T18:54:33.680Z,36.00
2022-08-16T18:55:33.682Z,36.00
2022-08-16T18:56:55.680Z,32.00
2022-08-16T18:57:33.428Z,28.00
2022-08-16T18:58:33.346Z,24.00
2022-08-16T18:59:33.278Z,20.00
2022-08-16T19:00:33.186Z,16.00
2022-08-16T19:01:33.146Z,16.00
2022-08-16T19:02:58.387Z,12.00
2022-08-16T19:03:32.955Z,12.00
2022-08-16T19:04:56.107Z,8.00
2022-08-16T19:05:32.794Z,8.00
2022-08-16T19:06:32.717Z,8.00
2022-08-16T19:07:32.632Z,8.00
2022-08-16T19:08:32.554Z,8.00
2022-08-16T19:09:32.475Z,4.00
2022-08-16T19:10:32.391Z,4.00
2022-08-16T19:11:32.321Z,4.00
2022-08-16T19:12:38.296Z,0.00
2022-08-16T19:13:32.154Z,0.00
2022-08-16T19:14:32.075Z,4.00
2022-08-16T19:15:31.996Z,4.00
2022-08-16T19:16:31.916Z,0.00
2022-08-16T19:17:31.835Z,0.00
2022-08-16T19:18:36.773Z,0.00
2022-08-16T19:19:31.669Z,0.00
2022-08-16T19:20:31.594Z,0.00
2022-08-16T19:21:31.518Z,0.00
2022-08-16T19:22:59.435Z,0.00
2022-08-16T19:23:31.358Z,0.00
2022-08-16T19:24:31.277Z,0.00
2022-08-16T19:25:47.566Z,0.00
2022-08-16T19:26:31.117Z,0.00
2022-08-16T19:27:32.694Z,0.00
2022-08-16T19:28:49.497Z,0.00
2022-08-16T19:29:30.871Z,0.00
2022-08-16T19:30:30.799Z,0.00
2022-08-16T19:31:30.716Z,0.00
2022-08-16T19:32:30.632Z,0.00
2022-08-16T19:33:30.564Z,0.00
2022-08-16T19:34:30.477Z,0.00
2022-08-16T19:35:30.410Z,0.00
2022-08-16T19:36:30.873Z,0.00
2022-08-16T19:37:30.237Z,0.00
2022-08-16T19:38:30.155Z,0.00
2022-08-16T19:39:32.638Z,0.00
2022-08-16T19:40:38.425Z,0.00
2022-08-16T19:41:29.909Z,0.00
2022-08-16T19:42:29.834Z,0.00
2022-08-16T19:43:29.753Z,0.00
2022-08-16T19:44:29.670Z,0.00
2022-08-16T19:45:29.602Z,0.00
2022-08-16T19:46:29.517Z,0.00
2022-08-16T19:47:29.438Z,0.00
2022-08-16T19:48:29.355Z,0.00
2022-08-16T19:49:29.272Z,0.00
2022-08-16T19:50:35.951Z,0.00
2022-08-16T19:51:29.117Z,0.00
2022-08-16T19:52:29.029Z,0.00
2022-08-16T19:53:28.944Z,0.00
2022-08-16T19:54:28.866Z,0.00
2022-08-16T19:55:28.781Z,0.00
2022-08-16T19:56:28.700Z,0.00
2022-08-16T19:57:28.621Z,0.00
2022-08-16T19:58:28.544Z,0.00
2022-08-16T19:59:39.971Z,0.00
2022-08-16T20:00:35.253Z,0.00
2022-08-16T20:01:28.299Z,0.00
2022-08-16T20:02:36.554Z,0.00
2022-08-16T20:03:28.207Z,0.00
2022-08-16T20:04:28.058Z,0.00
2022-08-16T20:05:27.976Z,0.00
2022-08-16T20:06:38.127Z,0.00
2022-08-16T20:07:27.813Z,0.00
2022-08-16T20:08:27.730Z,0.00
2022-08-16T20:09:27.659Z,0.00
2022-08-16T20:10:27.595Z,0.00
2022-08-16T20:11:27.486Z,0.00
2022-08-16T20:12:27.411Z,0.00
2022-08-16T20:13:27.334Z,0.00
2022-08-16T20:14:27.243Z,0.00
2022-08-16T20:15:27.326Z,0.00
2022-08-16T20:16:27.091Z,0.00
2022-08-16T20:17:27.008Z,0.00
2022-08-16T20:18:26.925Z,0.00
2022-08-16T20:19:26.845Z,0.00
2022-08-16T20:20:26.762Z,0.00
2022-08-16T20:21:26.676Z,0.00
2022-08-16T20:22:51.801Z,0.00
2022-08-16T20:23:26.518Z,0.00
2022-08-16T20:24:35.759Z,0.00
2022-08-16T20:25:28.094Z,0.00
2022-08-16T20:26:26.278Z,0.00
2022-08-16T20:27:26.190Z,0.00
2022-08-16T20:28:40.763Z,0.00